createdAt,value
2023-05-05T11:59:37.327Z,40.52
2023-05-05T12:00:35.921Z,40.90
2023-05-05T12:01:35.848Z,41.42
2023-05-05T12:02:35.890Z,41.65
2023-05-05T12:03:35.888Z,42.27
2023-05-05T12:04:35.950Z,43.39
2023-05-05T12:05:36.969Z,43.35
2023-05-05T12:06:35.766Z,43.99
2023-05-05T12:07:35.789Z,43.56
2023-05-05T12:08:35.745Z,42.99
2023-05-05T12:09:35.764Z,43.85
2023-05-05T12:10:35.732Z,43.96
2023-05-05T12:11:35.731Z,44.78
2023-05-05T12:12:35.798Z,45.57
2023-05-05T12:13:35.727Z,44.48
2023-05-05T12:14:35.716Z,43.62
2023-05-05T12:15:35.691Z,43.38
2023-05-05T12:16:35.733Z,43.10
2023-05-05T12:17:35.686Z,42.74
2023-05-05T12:18:35.640Z,41.95
2023-05-05T12:19:35.657Z,41.86
2023-05-05T12:20:35.656Z,41.64
2023-05-05T12:21:35.600Z,41.57
2023-05-05T12:22:35.590Z,41.65
2023-05-05T12:23:35.602Z,41.92
2023-05-05T12:24:35.577Z,42.18
2023-05-05T12:25:35.560Z,42.26
2023-05-05T12:26:35.569Z,42.63
2023-05-05T12:27:35.585Z,42.59
2023-05-05T12:28:35.523Z,43.18
2023-05-05T12:29:35.550Z,43.86
2023-05-05T12:30:35.618Z,44.33
2023-05-05T12:31:35.578Z,43.56
2023-05-05T12:32:35.512Z,44.14
2023-05-05T12:33:35.478Z,45.15
2023-05-05T12:34:35.488Z,45.49
2023-05-05T12:35:35.588Z,45.52
2023-05-05T12:36:35.536Z,45.94
2023-05-05T12:37:35.440Z,46.23
2023-05-05T12:38:35.425Z,45.82
2023-05-05T12:39:35.445Z,44.76
2023-05-05T12:40:35.411Z,43.93
2023-05-05T12:41:35.460Z,42.96
2023-05-05T12:42:35.422Z,42.51
2023-05-05T12:43:35.411Z,42.10
2023-05-05T12:44:35.406Z,41.43
2023-05-05T12:45:35.360Z,41.84
2023-05-05T12:46:35.417Z,42.87
2023-05-05T12:47:35.359Z,43.14
2023-05-05T12:48:35.319Z,42.42
2023-05-05T12:49:35.303Z,41.57
2023-05-05T12:50:35.323Z,41.96
2023-05-05T12:51:35.290Z,41.05
2023-05-05T12:52:35.271Z,40.79
2023-05-05T12:53:35.261Z,40.82
2023-05-05T12:54:35.241Z,41.04
2023-05-05T12:55:35.289Z,42.36
2023-05-05T12:56:35.222Z,42.96
2023-05-05T12:57:35.226Z,43.60
2023-05-05T12:58:35.208Z,44.29
2023-05-05T12:59:35.201Z,44.57
2023-05-05T13:00:35.296Z,44.33
2023-05-05T13:01:35.290Z,44.68
2023-05-05T13:02:35.231Z,44.74
2023-05-05T13:03:35.183Z,45.71
2023-05-05T13:04:35.242Z,43.67
2023-05-05T13:05:35.234Z,43.42
2023-05-05T13:06:35.125Z,44.90
2023-05-05T13:07:35.180Z,45.73
2023-05-05T13:08:35.121Z,46.17
2023-05-05T13:09:35.086Z,45.31
2023-05-05T13:10:35.104Z,45.08
2023-05-05T13:11:35.064Z,43.50
2023-05-05T13:12:38.801Z,43.62
2023-05-05T13:13:36.381Z,44.22
2023-05-05T13:14:35.637Z,44.57
2023-05-05T13:15:35.757Z,45.29
2023-05-05T13:16:35.231Z,44.35
2023-05-05T13:17:35.481Z,44.77
2023-05-05T13:18:35.287Z,45.77
2023-05-05T13:19:35.948Z,45.79
2023-05-05T13:20:36.815Z,46.43
2023-05-05T13:21:35.245Z,44.87
2023-05-05T13:22:35.001Z,45.09
2023-05-05T13:23:35.193Z,45.85
2023-05-05T13:24:49.577Z,45.56
2023-05-05T13:25:35.987Z,45.13
2023-05-05T13:26:35.514Z,45.90
2023-05-05T13:27:35.325Z,47.02
2023-05-05T13:28:36.000Z,46.30
2023-05-05T13:29:35.042Z,46.32
2023-05-05T13:30:35.611Z,46.86
2023-05-05T13:31:35.655Z,46.94
2023-05-05T13:32:35.876Z,47.30
2023-05-05T13:33:34.870Z,47.39
2023-05-05T13:34:36.614Z,47.25
2023-05-05T13:35:35.356Z,47.34
2023-05-05T13:36:34.920Z,47.38
2023-05-05T13:37:36.017Z,47.03
2023-05-05T13:38:35.043Z,46.54
2023-05-05T13:39:34.986Z,45.96
2023-05-05T13:40:37.615Z,46.31
2023-05-05T13:41:35.032Z,46.40
2023-05-05T13:42:35.107Z,46.68
2023-05-05T13:43:36.209Z,46.75
2023-05-05T13:44:35.090Z,47.31
2023-05-05T13:45:34.850Z,48.07
2023-05-05T13:46:34.914Z,48.19
2023-05-05T13:47:35.187Z,46.98
2023-05-05T13:48:34.798Z,47.13
2023-05-05T13:49:34.671Z,47.32
2023-05-05T13:50:34.660Z,45.66
2023-05-05T13:51:34.838Z,47.53
2023-05-05T13:52:34.634Z,46.39
2023-05-05T13:53:34.610Z,46.98
2023-05-05T13:54:34.616Z,46.52
2023-05-05T13:55:34.587Z,46.56
2023-05-05T13:56:34.997Z,46.80
2023-05-05T13:57:34.702Z,47.22
2023-05-05T13:58:37.132Z,47.51
2023-05-05T13:59:34.559Z,48.21
2023-05-05T14:00:34.557Z,47.59
2023-05-05T14:01:34.825Z,48.37
2023-05-05T14:02:34.618Z,47.32
2023-05-05T14:03:34.578Z,47.16
2023-05-05T14:04:34.568Z,47.84
2023-05-05T14:05:34.635Z,48.30
2023-05-05T14:06:34.838Z,48.08
2023-05-05T14:07:34.471Z,47.22
2023-05-05T14:08:34.473Z,47.08
2023-05-05T14:09:34.443Z,47.22
2023-05-05T14:10:34.428Z,47.42
2023-05-05T14:11:34.468Z,47.39
2023-05-05T14:12:34.454Z,48.06
2023-05-05T14:13:34.393Z,48.90
2023-05-05T14:14:34.399Z,49.32
2023-05-05T14:15:34.374Z,48.83
2023-05-05T14:16:34.506Z,48.95
2023-05-05T14:17:34.430Z,48.74
2023-05-05T14:18:34.350Z,49.39
2023-05-05T14:19:34.351Z,49.01
2023-05-05T14:20:34.321Z,48.97
2023-05-05T14:21:34.336Z,49.30
2023-05-05T14:22:34.296Z,49.33
2023-05-05T14:23:34.305Z,49.25
2023-05-05T14:24:34.302Z,49.54
2023-05-05T14:25:34.290Z,49.65
2023-05-05T14:26:34.290Z,49.71
2023-05-05T14:27:34.236Z,50.13
2023-05-05T14:28:34.288Z,50.31
2023-05-05T14:29:34.221Z,50.22
2023-05-05T14:30:34.216Z,50.21
2023-05-05T14:31:34.297Z,50.61
2023-05-05T14:32:34.220Z,50.34
2023-05-05T14:33:34.182Z,49.77
2023-05-05T14:34:34.210Z,50.10
2023-05-05T14:35:34.183Z,50.15
2023-05-05T14:36:34.182Z,49.96
2023-05-05T14:37:34.143Z,49.92
2023-05-05T14:38:34.175Z,49.91
2023-05-05T14:39:34.117Z,49.77
2023-05-05T14:40:34.170Z,49.93
2023-05-05T14:41:34.110Z,49.99
2023-05-05T14:42:34.154Z,50.14
2023-05-05T14:43:34.095Z,50.21
2023-05-05T14:44:34.070Z,50.09
2023-05-05T14:45:34.077Z,50.12
2023-05-05T14:46:34.092Z,50.52
2023-05-05T14:47:34.078Z,50.42
2023-05-05T14:48:34.053Z,50.49
2023-05-05T14:49:34.022Z,50.78
2023-05-05T14:50:34.038Z,50.62
2023-05-05T14:51:33.989Z,50.72
2023-05-05T14:52:34.035Z,51.24
2023-05-05T14:53:33.996Z,51.27
2023-05-05T14:54:33.987Z,51.16
2023-05-05T14:55:33.968Z,51.43
2023-05-05T14:56:33.938Z,51.44
2023-05-05T14:57:34.014Z,51.52
2023-05-05T14:58:33.917Z,51.69
2023-05-05T14:59:33.916Z,51.37
2023-05-05T15:00:33.998Z,51.14
2023-05-05T15:01:33.941Z,51.28
2023-05-05T15:02:34.041Z,51.60
2023-05-05T15:03:33.986Z,51.35
2023-05-05T15:04:33.963Z,51.61
2023-05-05T15:05:33.890Z,51.91
2023-05-05T15:06:33.839Z,51.73
2023-05-05T15:07:33.827Z,51.66
2023-05-05T15:08:33.867Z,51.77
2023-05-05T15:09:33.804Z,51.96
2023-05-05T15:10:33.795Z,52.09
2023-05-05T15:11:33.861Z,51.95
2023-05-05T15:12:33.808Z,52.44
2023-05-05T15:13:33.749Z,52.50
2023-05-05T15:14:33.758Z,52.55
2023-05-05T15:15:33.725Z,52.61
2023-05-05T15:16:35.233Z,52.73
2023-05-05T15:17:33.734Z,52.71
2023-05-05T15:18:33.710Z,52.86
2023-05-05T15:19:33.688Z,53.08
2023-05-05T15:20:33.676Z,52.98
2023-05-05T15:21:33.711Z,52.94
2023-05-05T15:22:33.762Z,53.22
2023-05-05T15:23:33.667Z,53.26
2023-05-05T15:24:33.633Z,53.11
2023-05-05T15:25:33.825Z,53.19
2023-05-05T15:26:33.625Z,53.08
2023-05-05T15:27:33.613Z,53.14
2023-05-05T15:28:33.606Z,53.43
2023-05-05T15:29:33.710Z,53.12
2023-05-05T15:30:33.646Z,52.96
2023-05-05T15:31:33.608Z,52.87
2023-05-05T15:32:33.609Z,52.89
2023-05-05T15:33:33.557Z,53.07
2023-05-05T15:34:33.540Z,53.07
2023-05-05T15:35:33.564Z,52.91
2023-05-05T15:36:33.547Z,53.31
2023-05-05T15:37:33.553Z,53.14
2023-05-05T15:38:33.494Z,53.33
2023-05-05T15:39:33.492Z,53.89
2023-05-05T15:40:33.584Z,53.60
2023-05-05T15:41:33.456Z,53.16
2023-05-05T15:42:33.456Z,53.52
2023-05-05T15:43:33.439Z,53.16
2023-05-05T15:44:33.508Z,53.06
2023-05-05T15:45:33.440Z,53.13
2023-05-05T15:46:33.479Z,53.18
2023-05-05T15:47:33.464Z,52.97
2023-05-05T15:48:33.371Z,53.10
2023-05-05T15:49:33.485Z,53.11
2023-05-05T15:50:33.395Z,52.73
2023-05-05T15:51:33.360Z,52.67
2023-05-05T15:52:33.418Z,52.88
2023-05-05T15:53:33.314Z,52.38
2023-05-05T15:54:33.377Z,52.65
2023-05-05T15:55:33.311Z,52.11
2023-05-05T15:56:33.465Z,52.50
2023-05-05T15:57:33.288Z,52.74
2023-05-05T15:58:33.287Z,52.46
2023-05-05T15:59:33.247Z,52.07
2023-05-05T16:00:33.327Z,52.34
2023-05-05T16:01:33.279Z,51.78
2023-05-05T16:02:33.303Z,52.38
2023-05-05T16:03:33.418Z,51.86
2023-05-05T16:04:33.236Z,51.61
2023-05-05T16:05:33.223Z,51.72
2023-05-05T16:06:33.195Z,52.04
2023-05-05T16:07:33.164Z,51.92
2023-05-05T16:08:33.227Z,52.07
2023-05-05T16:09:33.156Z,52.50
2023-05-05T16:10:33.236Z,51.92
2023-05-05T16:11:33.147Z,52.30
2023-05-05T16:12:33.142Z,52.32
2023-05-05T16:13:33.131Z,51.97
2023-05-05T16:14:33.093Z,52.31
2023-05-05T16:15:33.169Z,52.43
2023-05-05T16:16:33.103Z,52.24
2023-05-05T16:17:33.146Z,52.38
2023-05-05T16:18:33.061Z,52.37
2023-05-05T16:19:33.238Z,52.88
2023-05-05T16:20:33.039Z,52.47
2023-05-05T16:21:33.132Z,52.83
2023-05-05T16:22:33.011Z,53.02
2023-05-05T16:23:33.095Z,52.42
2023-05-05T16:24:32.994Z,52.43
2023-05-05T16:25:32.973Z,52.56
2023-05-05T16:26:33.056Z,52.70
2023-05-05T16:27:32.961Z,52.64
2023-05-05T16:28:32.948Z,52.64
2023-05-05T16:29:32.927Z,52.92
2023-05-05T16:30:32.938Z,53.05
2023-05-05T16:31:32.987Z,53.01
2023-05-05T16:32:33.267Z,53.17
2023-05-05T16:33:32.910Z,53.44
2023-05-05T16:34:32.882Z,53.28
2023-05-05T16:35:32.870Z,53.10
2023-05-05T16:36:32.931Z,53.53
2023-05-05T16:37:32.848Z,53.67
2023-05-05T16:38:32.892Z,53.77
2023-05-05T16:39:32.865Z,53.65
2023-05-05T16:40:32.842Z,53.74
2023-05-05T16:41:32.868Z,53.46
2023-05-05T16:42:32.800Z,53.63
2023-05-05T16:43:32.792Z,53.56
2023-05-05T16:44:32.836Z,53.69
2023-05-05T16:45:32.755Z,53.85
2023-05-05T16:46:32.806Z,53.61
2023-05-05T16:47:32.791Z,53.73
2023-05-05T16:48:32.779Z,53.44
2023-05-05T16:49:32.843Z,53.53
2023-05-05T16:50:32.717Z,53.77
2023-05-05T16:51:32.709Z,53.02
2023-05-05T16:52:32.726Z,52.83
2023-05-05T16:53:32.693Z,52.99
2023-05-05T16:54:32.737Z,53.16
2023-05-05T16:55:32.661Z,53.23
2023-05-05T16:56:32.672Z,53.38
2023-05-05T16:57:32.624Z,53.38
2023-05-05T16:58:32.700Z,53.63
2023-05-05T16:59:32.623Z,53.73
2023-05-05T17:00:32.624Z,53.69
2023-05-05T17:01:32.684Z,53.77
2023-05-05T17:02:32.597Z,54.02
2023-05-05T17:03:32.634Z,53.80
2023-05-05T17:04:32.552Z,53.82
2023-05-05T17:05:32.587Z,54.04
2023-05-05T17:06:32.664Z,53.87
2023-05-05T17:07:32.568Z,54.01
2023-05-05T17:08:32.510Z,53.90
2023-05-05T17:09:32.499Z,53.90
2023-05-05T17:10:32.546Z,54.17
2023-05-05T17:11:32.486Z,53.98
2023-05-05T17:12:32.647Z,53.93
2023-05-05T17:13:32.477Z,54.25
2023-05-05T17:14:32.448Z,54.28
2023-05-05T17:15:32.470Z,54.31
2023-05-05T17:16:32.469Z,54.32
2023-05-05T17:17:32.452Z,54.21
2023-05-05T17:18:32.446Z,54.26
2023-05-05T17:19:32.393Z,54.10
2023-05-05T17:20:32.467Z,54.12
2023-05-05T17:21:32.378Z,54.11
2023-05-05T17:22:32.380Z,53.95
2023-05-05T17:23:32.384Z,53.88
2023-05-05T17:24:32.349Z,53.70
2023-05-05T17:25:32.348Z,53.74
2023-05-05T17:26:32.351Z,53.83
2023-05-05T17:27:32.322Z,53.97
2023-05-05T17:28:32.341Z,53.80
2023-05-05T17:29:32.287Z,53.28
2023-05-05T17:30:32.305Z,53.32
2023-05-05T17:31:32.314Z,53.42
2023-05-05T17:32:32.320Z,53.18
2023-05-05T17:33:32.249Z,52.78
2023-05-05T17:34:32.283Z,52.96
2023-05-05T17:35:32.231Z,53.06
2023-05-05T17:36:32.218Z,52.81
2023-05-05T17:37:32.229Z,53.02
2023-05-05T17:38:32.229Z,53.52
2023-05-05T17:39:32.194Z,53.10
2023-05-05T17:40:32.296Z,53.17
2023-05-05T17:41:32.215Z,53.33
2023-05-05T17:42:32.190Z,53.47
2023-05-05T17:43:32.121Z,53.73
2023-05-05T17:44:32.157Z,53.57
2023-05-05T17:45:32.152Z,53.67
2023-05-05T17:46:32.108Z,53.73
2023-05-05T17:47:32.167Z,53.24
2023-05-05T17:48:32.133Z,53.19
2023-05-05T17:49:32.145Z,53.41
2023-05-05T17:50:32.090Z,53.50
2023-05-05T17:51:32.050Z,53.46
2023-05-05T17:52:32.075Z,53.74
2023-05-05T17:53:32.104Z,53.60
2023-05-05T17:54:32.034Z,53.53
2023-05-05T17:55:32.003Z,53.47
2023-05-05T17:56:32.029Z,53.38
2023-05-05T17:57:32.022Z,53.30
2023-05-05T17:58:31.978Z,53.23
2023-05-05T17:59:31.975Z,53.23
2023-05-05T18:00:31.972Z,53.23
2023-05-05T18:01:32.051Z,53.24
2023-05-05T18:02:31.997Z,53.07
2023-05-05T18:03:32.020Z,53.20
2023-05-05T18:04:31.926Z,53.16
2023-05-05T18:05:31.967Z,53.16
2023-05-05T18:06:31.887Z,53.27
2023-05-05T18:07:31.894Z,53.25
2023-05-05T18:08:31.910Z,53.14
2023-05-05T18:09:31.902Z,52.99
2023-05-05T18:10:31.893Z,52.94
2023-05-05T18:11:31.856Z,52.95
2023-05-05T18:12:31.884Z,53.39
2023-05-05T18:13:31.820Z,53.25
2023-05-05T18:14:31.852Z,53.41
2023-05-05T18:15:31.905Z,54.04
2023-05-05T18:16:31.773Z,53.71
2023-05-05T18:17:31.779Z,53.87
2023-05-05T18:18:31.789Z,53.80
2023-05-05T18:19:31.804Z,53.74
2023-05-05T18:20:31.735Z,53.73
2023-05-05T18:21:31.750Z,53.81
2023-05-05T18:22:31.722Z,54.10
2023-05-05T18:23:31.755Z,54.28
2023-05-05T18:24:31.723Z,53.87
2023-05-05T18:25:31.677Z,53.72
2023-05-05T18:26:31.680Z,53.73
2023-05-05T18:27:31.692Z,53.81
2023-05-05T18:28:31.668Z,53.90
2023-05-05T18:29:31.671Z,53.78
2023-05-05T18:30:31.633Z,53.75
2023-05-05T18:31:31.684Z,53.90
2023-05-05T18:32:31.761Z,54.10
2023-05-05T18:33:31.634Z,54.27
2023-05-05T18:34:31.650Z,54.64
2023-05-05T18:35:31.624Z,54.72
2023-05-05T18:36:31.561Z,54.56
2023-05-05T18:37:31.602Z,54.53
2023-05-05T18:38:31.575Z,54.63
2023-05-05T18:39:31.557Z,54.60
2023-05-05T18:40:31.552Z,54.59
2023-05-05T18:41:31.600Z,54.50
2023-05-05T18:42:31.513Z,54.33
2023-05-05T18:43:31.481Z,54.12
2023-05-05T18:44:31.522Z,54.08
2023-05-05T18:45:31.531Z,54.37
2023-05-05T18:46:31.478Z,54.18
2023-05-05T18:47:31.470Z,54.27
2023-05-05T18:48:31.452Z,54.40
2023-05-05T18:49:31.785Z,54.52
2023-05-05T18:50:31.411Z,54.68
2023-05-05T18:51:31.426Z,54.93
2023-05-05T18:52:31.417Z,55.63
2023-05-05T18:53:31.381Z,56.03
2023-05-05T18:54:31.410Z,56.78
2023-05-05T18:55:31.367Z,56.96
2023-05-05T18:56:31.374Z,57.34
2023-05-05T18:57:31.361Z,57.72
2023-05-05T18:58:31.319Z,58.68
2023-05-05T18:59:31.344Z,58.63
2023-05-05T19:00:31.449Z,58.91
2023-05-05T19:01:31.299Z,58.99
2023-05-05T19:02:31.371Z,59.28
2023-05-05T19:03:31.295Z,59.68
2023-05-05T19:04:32.002Z,59.84
2023-05-05T19:05:31.270Z,59.65
2023-05-05T19:06:31.235Z,60.10
2023-05-05T19:07:35.371Z,60.84
2023-05-05T19:08:31.214Z,60.60
2023-05-05T19:09:31.235Z,60.79
2023-05-05T19:10:31.200Z,60.94
2023-05-05T19:11:31.178Z,61.20
2023-05-05T19:12:31.214Z,61.43
2023-05-05T19:13:31.170Z,61.52
2023-05-05T19:14:31.184Z,61.97
2023-05-05T19:15:31.159Z,62.94
2023-05-05T19:16:31.206Z,62.38
2023-05-05T19:17:31.123Z,62.69
2023-05-05T19:18:31.107Z,63.00
2023-05-05T19:19:31.127Z,62.44
2023-05-05T19:20:31.093Z,62.55
2023-05-05T19:21:31.075Z,62.22
2023-05-05T19:22:31.076Z,62.56
2023-05-05T19:23:31.075Z,63.04
2023-05-05T19:24:31.070Z,62.86
2023-05-05T19:25:31.033Z,63.48
2023-05-05T19:26:31.053Z,63.59
2023-05-05T19:27:31.035Z,63.93
2023-05-05T19:28:31.064Z,64.20
2023-05-05T19:29:31.019Z,64.04
2023-05-05T19:30:30.994Z,64.52
2023-05-05T19:31:31.141Z,64.89
2023-05-05T19:32:31.029Z,65.63
2023-05-05T19:33:31.076Z,65.69
2023-05-05T19:34:30.933Z,65.91
2023-05-05T19:35:30.942Z,66.05
2023-05-05T19:36:30.988Z,66.21
2023-05-05T19:37:30.916Z,66.34
2023-05-05T19:38:30.891Z,66.42
2023-05-05T19:39:30.881Z,66.28
2023-05-05T19:40:30.900Z,66.44
2023-05-05T19:41:30.894Z,66.87
2023-05-05T19:42:30.862Z,67.11
2023-05-05T19:43:30.881Z,67.31
2023-05-05T19:44:30.832Z,67.06
2023-05-05T19:45:30.827Z,67.57
2023-05-05T19:46:30.869Z,67.80
2023-05-05T19:47:30.827Z,67.66
2023-05-05T19:48:30.783Z,68.11
2023-05-05T19:49:30.775Z,68.15
2023-05-05T19:50:30.829Z,68.14
2023-05-05T19:51:30.750Z,68.46
2023-05-05T19:52:30.754Z,68.26
2023-05-05T19:53:30.778Z,68.52
2023-05-05T19:54:30.727Z,68.78
2023-05-05T19:55:30.726Z,68.94
2023-05-05T19:56:30.727Z,69.00
2023-05-05T19:57:30.689Z,69.39
2023-05-05T19:58:30.672Z,69.43
2023-05-05T19:59:30.702Z,69.45
2023-05-05T20:00:30.669Z,69.65
2023-05-05T20:01:30.673Z,69.57
2023-05-05T20:02:30.757Z,69.71
2023-05-05T20:03:30.665Z,69.75
2023-05-05T20:04:30.617Z,70.04
2023-05-05T20:05:30.651Z,70.08
2023-05-05T20:06:30.578Z,69.97
2023-05-05T20:07:30.589Z,69.70
2023-05-05T20:08:30.622Z,70.09
2023-05-05T20:09:30.557Z,70.28
2023-05-05T20:10:30.563Z,70.11
2023-05-05T20:11:30.556Z,70.19
2023-05-05T20:12:30.520Z,70.05
2023-05-05T20:13:30.536Z,70.28
2023-05-05T20:14:30.614Z,70.33
2023-05-05T20:15:31.931Z,70.18
2023-05-05T20:16:30.518Z,70.08
2023-05-05T20:17:30.548Z,70.06
2023-05-05T20:18:30.457Z,70.20
2023-05-05T20:19:30.450Z,70.22
2023-05-05T20:20:30.493Z,70.27
2023-05-05T20:21:30.423Z,70.18
2023-05-05T20:22:30.412Z,70.28
2023-05-05T20:23:30.471Z,70.36
2023-05-05T20:24:30.392Z,70.45
2023-05-05T20:25:30.383Z,70.61
2023-05-05T20:26:30.417Z,70.57
2023-05-05T20:27:30.371Z,71.04
2023-05-05T20:28:30.349Z,71.13
2023-05-05T20:29:30.381Z,70.87
2023-05-05T20:30:30.331Z,70.75
2023-05-05T20:31:30.474Z,70.69
2023-05-05T20:32:30.388Z,70.78
2023-05-05T20:33:30.306Z,70.94
2023-05-05T20:34:30.296Z,70.91
2023-05-05T20:35:30.281Z,71.23
2023-05-05T20:36:30.272Z,71.29
2023-05-05T20:37:30.562Z,71.69
2023-05-05T20:38:30.377Z,71.57
2023-05-05T20:39:30.456Z,71.66
2023-05-05T20:40:30.333Z,71.78
2023-05-05T20:41:30.415Z,71.89
2023-05-05T20:42:30.530Z,71.82
2023-05-05T20:43:30.365Z,71.84
2023-05-05T20:44:30.394Z,71.75
2023-05-05T20:45:30.224Z,71.88
2023-05-05T20:46:30.196Z,71.75
2023-05-05T20:47:30.189Z,72.11
2023-05-05T20:48:30.218Z,72.45
2023-05-05T20:49:30.120Z,72.39
2023-05-05T20:50:30.105Z,72.34
2023-05-05T20:51:30.154Z,72.12
2023-05-05T20:52:30.105Z,71.97
2023-05-05T20:53:30.091Z,72.09
2023-05-05T20:54:30.094Z,72.23
2023-05-05T20:55:30.082Z,72.13
2023-05-05T20:56:30.043Z,72.06
2023-05-05T20:57:30.142Z,71.93
2023-05-05T20:58:30.041Z,71.78
2023-05-05T20:59:30.091Z,71.67
2023-05-05T21:00:30.007Z,71.74
2023-05-05T21:01:30.147Z,71.73
2023-05-05T21:02:30.065Z,71.69
2023-05-05T21:03:30.072Z,71.79
2023-05-05T21:04:29.965Z,71.65
2023-05-05T21:05:29.967Z,71.35
2023-05-05T21:06:29.988Z,71.17
2023-05-05T21:07:29.968Z,71.06
2023-05-05T21:08:30.033Z,70.93
2023-05-05T21:09:29.992Z,70.74
2023-05-05T21:10:29.900Z,70.63
2023-05-05T21:11:29.895Z,70.65
2023-05-05T21:12:30.035Z,70.98
2023-05-05T21:13:29.859Z,70.83
2023-05-05T21:14:29.861Z,70.70
2023-05-05T21:15:29.837Z,70.89
2023-05-05T21:16:29.882Z,70.96
2023-05-05T21:17:29.852Z,70.91
2023-05-05T21:18:29.821Z,71.08
2023-05-05T21:19:29.893Z,70.91
2023-05-05T21:20:29.779Z,70.95
2023-05-05T21:21:29.789Z,71.11
2023-05-05T21:22:29.791Z,71.21
2023-05-05T21:23:29.843Z,71.04
2023-05-05T21:24:29.771Z,71.03
2023-05-05T21:25:29.724Z,71.21
2023-05-05T21:26:29.725Z,71.38
2023-05-05T21:27:29.747Z,71.48
2023-05-05T21:28:29.812Z,71.57
2023-05-05T21:29:29.693Z,71.57
2023-05-05T21:30:29.673Z,71.42
2023-05-05T21:31:29.710Z,71.62
2023-05-05T21:32:29.779Z,71.47
2023-05-05T21:33:29.678Z,71.61
2023-05-05T21:34:29.622Z,71.62
2023-05-05T21:35:29.625Z,71.65
2023-05-05T21:36:29.605Z,71.66
2023-05-05T21:37:29.662Z,71.53
2023-05-05T21:38:29.611Z,71.62
2023-05-05T21:39:29.698Z,71.75
2023-05-05T21:40:29.578Z,71.99
2023-05-05T21:41:29.592Z,71.80
2023-05-05T21:42:29.581Z,72.05
2023-05-05T21:43:29.550Z,72.12
2023-05-05T21:44:29.591Z,71.89
2023-05-05T21:45:29.510Z,72.16
2023-05-05T21:46:29.527Z,72.29
2023-05-05T21:47:29.529Z,72.08
2023-05-05T21:48:29.525Z,72.35
2023-05-05T21:49:29.479Z,72.80
2023-05-05T21:50:29.669Z,72.67
2023-05-05T21:51:29.451Z,72.42
2023-05-05T21:52:29.528Z,72.38
2023-05-05T21:53:29.428Z,72.47
2023-05-05T21:54:29.438Z,72.40
2023-05-05T21:55:29.421Z,72.43
2023-05-05T21:56:29.387Z,72.36
2023-05-05T21:57:29.457Z,72.43
2023-05-05T21:58:29.411Z,72.64
2023-05-05T21:59:29.381Z,72.61
2023-05-05T22:00:29.399Z,72.68
2023-05-05T22:01:29.443Z,72.57
2023-05-05T22:02:29.409Z,72.64
2023-05-05T22:03:29.494Z,72.51
2023-05-05T22:04:29.330Z,72.33
2023-05-05T22:05:29.482Z,72.76
2023-05-05T22:06:29.297Z,72.90
2023-05-05T22:07:29.973Z,72.77
2023-05-05T22:08:29.374Z,72.64
2023-05-05T22:09:29.303Z,72.85
2023-05-05T22:10:29.245Z,72.95
2023-05-05T22:11:29.256Z,72.90
2023-05-05T22:12:29.260Z,72.87
2023-05-05T22:13:29.230Z,72.86
2023-05-05T22:14:29.317Z,72.90
2023-05-05T22:15:35.643Z,72.85
2023-05-05T22:16:30.355Z,72.72
2023-05-05T22:17:29.209Z,72.67
2023-05-05T22:18:29.147Z,72.65
2023-05-05T22:19:29.223Z,72.68
2023-05-05T22:20:29.152Z,72.75
2023-05-05T22:21:29.125Z,72.65
2023-05-05T22:22:29.119Z,72.64
2023-05-05T22:23:29.122Z,72.53
2023-05-05T22:24:29.131Z,72.52
2023-05-05T22:25:29.093Z,72.63
2023-05-05T22:26:29.154Z,72.41
2023-05-05T22:27:29.061Z,72.18
2023-05-05T22:28:29.039Z,72.25
2023-05-05T22:29:29.034Z,72.15
2023-05-05T22:30:29.061Z,72.08
2023-05-05T22:31:29.096Z,72.12
2023-05-05T22:32:29.073Z,72.41
2023-05-05T22:33:29.006Z,72.37
2023-05-05T22:34:28.991Z,72.41
2023-05-05T22:35:29.001Z,72.53
2023-05-05T22:36:28.951Z,72.59
2023-05-05T22:37:28.956Z,72.75
2023-05-05T22:38:28.971Z,72.65
2023-05-05T22:39:28.947Z,72.63
2023-05-05T22:40:28.914Z,72.74
2023-05-05T22:41:28.926Z,72.82
2023-05-05T22:42:28.914Z,73.01
2023-05-05T22:43:28.910Z,73.24
2023-05-05T22:44:28.880Z,73.38
2023-05-05T22:45:28.930Z,73.36
2023-05-05T22:46:28.864Z,73.44
2023-05-05T22:47:28.895Z,73.59
2023-05-05T22:48:28.842Z,73.40
2023-05-05T22:49:28.984Z,73.36
2023-05-05T22:50:28.805Z,73.40
2023-05-05T22:51:28.798Z,73.36
2023-05-05T22:52:28.812Z,73.28
2023-05-05T22:53:28.774Z,73.33
2023-05-05T22:54:28.796Z,73.46
2023-05-05T22:55:28.754Z,73.37
2023-05-05T22:56:28.742Z,73.37
2023-05-05T22:57:28.763Z,73.60
2023-05-05T22:58:28.778Z,73.64
2023-05-05T22:59:28.730Z,73.74
2023-05-05T23:00:28.696Z,73.71
2023-05-05T23:01:28.716Z,73.71
2023-05-05T23:02:28.680Z,73.67
2023-05-05T23:03:28.702Z,73.89
2023-05-05T23:04:28.687Z,73.98
2023-05-05T23:05:28.665Z,73.82
2023-05-05T23:06:28.631Z,74.10
2023-05-05T23:07:28.629Z,74.06
2023-05-05T23:08:28.607Z,73.98
2023-05-05T23:09:28.589Z,73.99
2023-05-05T23:10:28.623Z,74.25
2023-05-05T23:11:28.581Z,74.31
2023-05-05T23:12:28.559Z,74.54
2023-05-05T23:13:28.705Z,74.65
2023-05-05T23:14:28.550Z,74.60
2023-05-05T23:15:28.641Z,74.56
2023-05-05T23:16:28.573Z,74.47
2023-05-05T23:17:28.544Z,74.62
2023-05-05T23:18:28.494Z,74.54
2023-05-05T23:19:28.480Z,74.51
2023-05-05T23:20:28.515Z,74.53
2023-05-05T23:21:29.348Z,74.72
2023-05-05T23:22:28.454Z,75.14
2023-05-05T23:23:28.449Z,75.41
2023-05-05T23:24:28.607Z,75.32
2023-05-05T23:25:28.429Z,75.32
2023-05-05T23:26:28.414Z,75.14
2023-05-05T23:27:28.434Z,75.23
2023-05-05T23:28:28.385Z,75.44
2023-05-05T23:29:28.409Z,75.30
2023-05-05T23:30:28.385Z,75.20
2023-05-05T23:31:28.371Z,75.18
2023-05-05T23:32:28.376Z,75.15
2023-05-05T23:33:28.354Z,75.23
2023-05-05T23:34:28.354Z,75.31
2023-05-05T23:35:28.500Z,75.30
2023-05-05T23:36:28.305Z,75.63
2023-05-05T23:37:28.306Z,75.50
2023-05-05T23:38:28.295Z,75.42
2023-05-05T23:39:28.306Z,75.81
2023-05-05T23:40:28.282Z,75.55
2023-05-05T23:41:28.248Z,75.49
2023-05-05T23:42:28.241Z,75.47
2023-05-05T23:43:28.256Z,75.46
2023-05-05T23:44:28.242Z,75.63
2023-05-05T23:45:28.207Z,75.47
2023-05-05T23:46:28.211Z,75.39
2023-05-05T23:47:28.240Z,75.59
2023-05-05T23:48:28.199Z,75.65
2023-05-05T23:49:28.160Z,75.68
2023-05-05T23:50:28.169Z,75.46
2023-05-05T23:51:28.141Z,75.41
2023-05-05T23:52:28.287Z,75.30
2023-05-05T23:53:28.149Z,75.38
2023-05-05T23:54:28.127Z,75.36
2023-05-05T23:55:28.184Z,75.21
2023-05-05T23:56:28.119Z,75.54
2023-05-05T23:57:28.082Z,75.69
2023-05-05T23:59:25.171Z,74.98
